createdAt,value
2023-03-10T00:00:01.900Z,51.496211708935235
2023-03-10T00:15:01.605Z,51.50275727097188
2023-03-10T00:30:01.360Z,51.74475338807343
2023-03-10T00:45:02.031Z,51.55489297441329
2023-03-10T01:00:01.661Z,52.45559740832642
2023-03-10T01:15:01.303Z,52.13827359600724
2023-03-10T01:30:02.007Z,52.26092292650976
2023-03-10T01:45:01.663Z,51.84229573305767
2023-03-10T02:00:01.293Z,52.02231015341613
2023-03-10T02:15:02.286Z,52.136052837037404
2023-03-10T02:30:02.030Z,53.93731366104184
2023-03-10T02:45:01.717Z,56.157034890504484
2023-03-10T03:00:02.363Z,58.00435955369845
2023-03-10T03:15:01.985Z,58.18924138708705
2023-03-10T03:30:01.712Z,58.058868222899854
2023-03-10T03:45:02.382Z,57.41395112946052
2023-03-10T04:00:02.008Z,56.330488554638364
2023-03-10T04:15:01.664Z,56.23912230119526
2023-03-10T04:30:02.357Z,55.70318153334976
2023-03-10T04:45:02.018Z,55.77694184924052
2023-03-10T05:00:03.171Z,55.94319072628625
2023-03-10T05:15:02.228Z,56.21772753346143
2023-03-10T05:30:02.276Z,57.331748882277296
2023-03-10T05:45:01.983Z,56.22666778384496
2023-03-10T06:00:01.633Z,56.71218524985017
2023-03-10T06:15:01.575Z,56.236160149815774
2023-03-10T06:30:02.299Z,56.78710875903454
2023-03-10T06:45:01.938Z,56.105278107590635
2023-03-10T07:00:01.564Z,55.77663552707577
2023-03-10T07:15:02.175Z,55.189971613481035
2023-03-10T07:30:01.815Z,53.599470188044855
2023-03-10T07:45:02.452Z,52.86393036416025
2023-03-10T08:00:02.059Z,53.15408786796866
2023-03-10T08:15:01.692Z,53.27986739216797
2023-03-10T08:30:02.388Z,52.17375031367019
2023-03-10T08:45:02.027Z,52.36477174039931
2023-03-10T09:00:01.735Z,53.60670200773071
2023-03-10T09:15:02.384Z,53.57367870048834
2023-03-10T09:30:02.024Z,53.272330931439114
2023-03-10T09:45:01.661Z,53.20869019646204
2023-03-10T10:00:02.327Z,53.55726759080636
2023-03-10T10:15:01.963Z,51.08188918243869
2023-03-10T10:30:01.609Z,51.80900708049587
2023-03-10T10:45:02.391Z,53.07230657567332
2023-03-10T11:00:02.030Z,52.75620895337049
2023-03-10T11:15:01.716Z,51.8175448032817
2023-03-10T11:30:01.379Z,51.30513158368023
2023-03-10T11:45:02.038Z,51.43768000744032
2023-03-10T12:00:01.654Z,51.6297427394508
2023-03-10T12:15:01.285Z,51.14879199802599
2023-03-10T12:30:01.996Z,51.2746926932048
2023-03-10T12:45:01.680Z,51.37312025381976
2023-03-10T13:00:01.304Z,50.705267330284634
2023-03-10T13:15:02.007Z,52.42624225212873
2023-03-10T13:30:01.643Z,50.8001219165716
2023-03-10T13:45:01.244Z,51.944280435232706
2023-03-10T14:00:01.868Z,51.64043052500361
2023-03-10T14:15:01.820Z,51.53918988352316
2023-03-10T14:30:01.541Z,53.1768749721933
2023-03-10T14:45:02.204Z,53.30867367727613
2023-03-10T15:00:01.877Z,56.465215739711326
2023-03-10T15:15:01.510Z,54.76222026277407
2023-03-10T15:30:02.169Z,54.78034630520538
2023-03-10T15:45:01.823Z,55.56812648167359
2023-03-10T16:00:01.444Z,55.83215159584238
2023-03-10T16:15:02.129Z,56.139239287566085
2023-03-10T16:30:01.903Z,56.485289978822784
2023-03-10T16:45:01.608Z,58.28556405215242
2023-03-10T17:00:02.344Z,58.22914564865186
2023-03-10T17:15:01.980Z,57.53943754568132
2023-03-10T17:30:01.979Z,57.544080661467255
2023-03-10T17:45:01.699Z,57.754040316859616
2023-03-10T18:00:01.476Z,57.94034443061861
2023-03-10T18:15:02.143Z,58.46150339579591
2023-03-10T18:30:01.800Z,58.726570957227565
2023-03-10T18:45:01.462Z,58.947383317874916
2023-03-10T19:00:02.162Z,59.14013150865536
2023-03-10T19:15:01.860Z,58.62829283865617
2023-03-10T19:30:01.546Z,58.47369027219287
2023-03-10T19:45:02.229Z,58.86189155701059
2023-03-10T20:00:01.862Z,58.349218329259905
2023-03-10T20:15:01.556Z,58.403037846437954
2023-03-10T20:30:01.214Z,58.68584850898118
2023-03-10T20:45:01.865Z,58.39365148355125
2023-03-10T21:00:01.521Z,58.21889997196016
2023-03-10T21:15:01.163Z,58.10200769249875
2023-03-10T21:30:01.830Z,58.00644447632665
2023-03-10T21:45:01.486Z,58.14060203860484
2023-03-10T22:00:02.146Z,58.16949189049668
2023-03-10T22:15:02.242Z,57.614762796147424
2023-03-10T22:30:01.934Z,58.335718419632414
2023-03-10T22:45:01.628Z,58.152653156523904
2023-03-10T23:00:02.284Z,59.00153957084404
2023-03-10T23:15:05.100Z,58.56570860265455
2023-03-10T23:30:01.680Z,57.80326382688935
2023-03-10T23:45:02.361Z,57.51950229279156
